Time;durP1;ratioP1;P1;durP2;ratioP2;P2;SDS_P1;SDS_P2;PMS_P1;PMS_P2;Temp;Humidity;BMP_temperature;BMP_pressure;BME280_temperature;BME280_humidity;BME280_pressure;Samples;Min_cycle;Max_cycle;Signal;HPM_P1;HPM_P2
2022/01/25 00:28:43;;;;;;;43.25;26.92;;;;;;;4.59;77.14;103385.13;5073021;28;20040;-59
2022/01/25 00:31:15;;;;;;;43.53;26.08;;;;;;;4.61;76.92;103375.66;5072576;28;20025;-59
2022/01/25 00:33:42;;;;;;;;;;;;;;;4.73;76.33;103378.28;5073239;28;20116;-59
2022/01/25 00:36:11;;;;;;;39.22;23.15;;;;;;;4.66;76.99;103389.09;5072898;28;19916;-59
2022/01/25 00:38:36;;;;;;;38.97;24.90;;;;;;;4.66;76.87;103390.00;5072855;28;20422;-59
2022/01/25 00:41:02;;;;;;;40.97;24.95;;;;;;;4.70;76.85;103389.44;5072562;28;20147;-59
2022/01/25 00:43:27;;;;;;;40.67;25.33;;;;;;;4.74;76.56;103385.34;5072329;28;20049;-59
2022/01/25 00:45:58;;;;;;;40.28;24.42;;;;;;;4.74;76.89;103382.72;5072523;28;20024;-59
2022/01/25 00:54:27;;;;;;;37.95;24.20;;;;;;;4.69;77.17;103378.84;5072544;28;20397;-59
2022/01/25 00:56:54;;;;;;;40.15;24.85;;;;;;;4.59;76.95;103373.72;5072286;28;20462;-59
2022/01/25 00:59:24;;;;;;;44.55;25.58;;;;;;;4.59;77.02;103373.72;5072356;28;20108;-59
2022/01/25 01:01:56;;;;;;;42.65;25.10;;;;;;;4.66;77.49;103371.66;5072383;28;20029;-59
2022/01/25 01:04:22;;;;;;;42.63;25.50;;;;;;;4.67;77.06;103373.50;5072550;28;20112;-59
2022/01/25 01:06:48;;;;;;;45.30;26.73;;;;;;;4.62;77.33;103374.84;5072999;28;20063;-59
2022/01/25 01:09:16;;;;;;;41.55;25.60;;;;;;;4.61;77.37;103366.88;5076259;28;20016;-59
2022/01/25 01:11:56;;;;;;;34.97;22.60;;;;;;;4.63;77.25;103378.41;5075735;28;20420;-59
2022/01/25 01:17:16;;;;;;;39.03;25.10;;;;;;;4.67;77.26;103373.50;5076244;28;20072;-59
2022/01/25 01:30:47;;;;;;;40.38;24.05;;;;;;;4.70;77.84;103385.91;5076043;28;20083;-59
2022/01/25 01:44:04;;;;;;;41.40;24.05;;;;;;;4.76;78.34;103389.91;5075119;28;20048;-59
2022/01/25 01:46:37;;;;;;;41.30;24.33;;;;;;;4.77;77.92;103389.09;5075263;28;20063;-59
2022/01/25 01:49:05;;;;;;;42.15;25.40;;;;;;;4.78;77.50;103380.44;5075319;28;20036;-59
2022/01/25 01:51:34;;;;;;;41.28;24.67;;;;;;;4.79;78.00;103386.59;5075250;28;20599;-59
2022/01/25 01:54:10;;;;;;;43.97;25.48;;;;;;;4.77;78.00;103383.88;5075049;28;20035;-59
2022/01/25 01:56:36;;;;;;;40.67;23.88;;;;;;;4.77;77.80;103380.34;5074856;28;20075;-62
2022/01/25 01:59:06;;;;;;;39.65;24.30;;;;;;;4.80;78.05;103391.06;5075360;28;20040;-59
2022/01/25 02:01:33;;;;;;;41.95;25.70;;;;;;;4.89;77.76;103393.44;5075021;28;20028;-59
2022/01/25 02:04:01;;;;;;;45.10;26.20;;;;;;;4.88;77.11;103383.75;5074934;28;20424;-59
2022/01/25 02:06:27;;;;;;;40.90;25.08;;;;;;;4.88;77.66;103384.69;5074742;28;20032;-59
2022/01/25 02:08:53;;;;;;;40.97;25.38;;;;;;;4.90;77.22;103376.94;5074952;28;20032;-59
2022/01/25 02:11:19;;;;;;;40.78;24.38;;;;;;;4.89;77.54;103377.72;5075010;28;20075;-59
2022/01/25 02:13:46;;;;;;;42.80;24.67;;;;;;;4.89;78.08;103375.13;5074777;28;20052;-59
2022/01/25 02:16:30;;;;;;;39.47;24.67;;;;;;;4.91;77.22;103381.38;5074791;28;20035;-59
2022/01/25 02:24:25;;;;;;;45.72;25.48;;;;;;;4.94;77.45;103368.50;5074948;28;20074;-59
2022/01/25 02:26:55;;;;;;;43.72;25.98;;;;;;;4.89;76.73;103362.91;5074506;28;20438;-59
2022/01/25 02:29:20;;;;;;;43.47;24.98;;;;;;;4.94;77.54;103378.97;5074542;28;20029;-59
2022/01/25 02:31:46;;;;;;;42.22;24.85;;;;;;;4.94;77.26;103368.50;5074456;28;20474;-59
2022/01/25 02:34:12;;;;;;;42.38;25.45;;;;;;;4.92;76.95;103365.75;5074381;28;20021;-59
2022/01/25 02:36:38;;;;;;;38.85;24.13;;;;;;;4.88;77.60;103357.56;5074370;28;20036;-59
2022/01/25 02:39:04;;;;;;;43.03;25.70;;;;;;;4.83;78.15;103364.16;5074334;28;20074;-59
2022/01/25 02:41:29;;;;;;;41.72;25.63;;;;;;;4.81;77.98;103357.91;5074262;28;20025;-59
2022/01/25 02:43:56;;;;;;;42.38;26.50;;;;;;;4.69;77.97;103350.94;5073932;28;20063;-59
2022/01/25 02:48:29;;;;;;;46.47;28.40;;;;;;;4.63;78.41;103357.47;5074048;28;20032;-59
2022/01/25 02:49:08;;;;;;;47.13;26.50;;;;;;;4.61;78.71;103351.16;5073999;28;20045;-59
2022/01/25 02:51:43;;;;;;;47.22;27.63;;;;;;;4.61;77.90;103345.94;5074165;28;20032;-59
2022/01/25 02:54:09;;;;;;;47.88;27.60;;;;;;;4.61;78.16;103357.31;5074053;28;20033;-58
2022/01/25 02:56:36;;;;;;;54.05;29.00;;;;;;;4.62;77.99;103360.84;5073822;28;20071;-58
2022/01/25 02:59:04;;;;;;;46.38;26.50;;;;;;;4.69;78.39;103352.66;5073731;28;20036;-60
2022/01/25 03:01:29;;;;;;;48.25;28.17;;;;;;;4.69;77.97;103348.31;5073745;28;20516;-59
2022/01/25 03:03:55;;;;;;;42.65;25.02;;;;;;;4.66;77.90;103352.41;5073802;28;20020;-59
2022/01/25 03:06:22;;;;;;;42.50;25.75;;;;;;;4.64;78.24;103349.69;5073721;28;20024;-59
2022/01/25 03:08:49;;;;;;;47.65;28.33;;;;;;;4.63;77.72;103355.75;5073806;28;20470;-59
2022/01/25 03:11:17;;;;;;;44.92;26.35;;;;;;;4.60;78.39;103355.50;5073666;28;20469;-59
2022/01/25 03:13:52;;;;;;;51.20;28.60;;;;;;;4.61;78.01;103340.69;5073376;28;20074;-59
2022/01/25 03:19:01;;;;;;;46.13;25.75;;;;;;;4.69;77.86;103327.38;5073675;28;20033;-59
2022/01/25 03:23:52;;;;;;;49.47;26.88;;;;;;;4.85;77.53;103337.28;5073451;28;20032;-59
2022/01/25 03:26:19;;;;;;;43.78;25.95;;;;;;;4.91;77.84;103323.72;5073074;28;20377;-59
2022/01/25 03:28:44;;;;;;;47.30;25.35;;;;;;;4.86;77.55;103319.88;5073332;28;20037;-59
2022/01/25 03:31:10;;;;;;;50.78;28.02;;;;;;;4.85;77.42;103321.56;5073197;28;20032;-59
2022/01/25 03:33:36;;;;;;;48.05;27.10;;;;;;;4.85;77.10;103324.19;5073491;28;20027;-59
2022/01/25 03:36:03;;;;;;;49.03;28.38;;;;;;;4.85;76.93;103326.81;5073313;28;20086;-58
2022/01/25 03:38:30;;;;;;;54.30;28.83;;;;;;;4.84;77.00;103327.63;5073316;28;20116;-59
2022/01/25 03:40:57;;;;;;;51.70;28.45;;;;;;;4.87;77.01;103330.44;5073041;28;20129;-59
2022/01/25 03:43:22;;;;;;;50.90;28.63;;;;;;;4.90;77.36;103324.53;5073074;28;20474;-59
2022/01/25 03:46:00;;;;;;;56.20;29.55;;;;;;;4.89;76.60;103322.72;5073061;28;20036;-59
2022/01/25 03:50:51;;;;;;;53.83;30.10;;;;;;;4.82;76.98;103329.19;5073117;28;20481;-59
2022/01/25 03:53:20;;;;;;;56.55;29.70;;;;;;;4.82;77.22;103328.28;5073069;28;20108;-59
2022/01/25 03:55:47;;;;;;;50.53;27.23;;;;;;;4.88;77.76;103329.66;5073117;28;20016;-59
2022/01/25 03:58:13;;;;;;;55.08;28.92;;;;;;;4.92;77.28;103333.41;5072875;28;20474;-58
2022/01/25 04:00:39;;;;;;;52.28;29.27;;;;;;;4.92;76.69;103331.69;5073095;28;20029;-59
2022/01/25 04:03:16;;;;;;;58.50;31.52;;;;;;;4.92;76.56;103336.94;5073235;28;20020;-59
2022/01/25 04:08:07;;;;;;;52.30;29.38;;;;;;;4.90;76.92;103343.78;5072949;28;20400;-59
2022/01/25 04:10:32;;;;;;;59.42;30.38;;;;;;;4.93;77.37;103330.00;5072788;28;20086;-59
2022/01/25 04:12:58;;;;;;;56.28;29.83;;;;;;;4.97;77.06;103339.91;5072870;28;20215;-59
2022/01/25 04:15:23;;;;;;;52.42;28.75;;;;;;;5.02;76.74;103341.16;5073084;28;20058;-59
2022/01/25 04:17:58;;;;;;;52.53;28.65;;;;;;;5.03;77.06;103338.63;5072613;28;20499;-59
2022/01/25 04:20:28;;;;;;;54.03;29.33;;;;;;;5.06;77.17;103345.81;5072759;28;20078;-60
2022/01/25 04:25:38;;;;;;;55.70;29.63;;;;;;;5.05;77.12;103340.44;5072625;28;20127;-59
2022/01/25 04:28:04;;;;;;;52.75;28.95;;;;;;;4.99;77.32;103323.50;5072664;28;20107;-58
2022/01/25 04:30:29;;;;;;;54.50;29.77;;;;;;;4.93;76.82;103325.69;5072859;28;20028;-58
2022/01/25 04:33:01;;;;;;;56.55;28.80;;;;;;;4.93;77.26;103330.00;5072690;28;20024;-59
2022/01/25 04:56:46;;;;;;;47.47;25.48;;;;;;;5.02;77.39;103320.19;5076555;28;19920;-59
2022/01/25 05:01:43;;;;;;;50.38;28.00;;;;;;;5.00;77.06;103319.16;5076195;28;20040;-58
2022/01/25 05:04:15;;;;;;;51.17;28.42;;;;;;;4.97;77.58;103318.97;5076099;28;20115;-58
2022/01/25 05:06:43;;;;;;;55.28;28.08;;;;;;;4.99;78.34;103318.25;5076046;28;20502;-59
2022/01/25 05:09:12;;;;;;;51.80;28.05;;;;;;;5.07;77.68;103308.34;5075911;28;20183;-60
2022/01/25 05:11:44;;;;;;;50.65;27.77;;;;;;;5.10;77.43;103312.91;5076164;28;20093;-59
2022/01/25 05:14:17;;;;;;;53.95;29.02;;;;;;;5.10;77.62;103318.13;5076143;28;20031;-59
2022/01/25 05:16:56;;;;;;;49.60;27.70;;;;;;;5.13;77.36;103318.34;5075882;28;20029;-59
2022/01/25 05:22:03;;;;;;;49.90;27.17;;;;;;;5.11;77.31;103309.47;5075873;28;20492;-59
2022/01/25 05:22:24;;;;;;;50.50;26.05;;;;;;;5.06;77.72;103305.63;5075659;28;20474;-58
2022/01/25 05:24:50;;;;;;;49.50;26.50;;;;;;;5.01;77.91;103321.91;5075914;28;20035;-59
2022/01/25 05:27:18;;;;;;;51.75;27.40;;;;;;;5.01;77.55;103308.81;5075478;28;20386;-59
2022/01/25 05:29:44;;;;;;;48.30;25.65;;;;;;;5.02;78.09;103309.72;5075701;28;20033;-59
2022/01/25 05:32:10;;;;;;;47.67;27.10;;;;;;;4.93;78.00;103309.97;5075638;28;20032;-58
2022/01/25 05:34:35;;;;;;;52.03;27.60;;;;;;;4.94;77.65;103311.78;5075319;28;20056;-57
2022/01/25 05:37:03;;;;;;;52.35;27.48;;;;;;;4.97;77.67;103308.47;5075425;28;20033;-58
2022/01/25 05:39:32;;;;;;;48.88;27.27;;;;;;;4.97;78.44;103305.84;5075438;28;20036;-59
2022/01/25 05:42:17;;;;;;;48.58;26.70;;;;;;;5.00;77.75;103301.72;5057350;28;20039;-59
2022/01/25 05:44:55;;;;;;;51.13;27.98;;;;;;;5.05;77.35;103306.38;5075167;28;20048;-59
2022/01/25 05:47:28;;;;;;;53.28;26.85;;;;;;;5.07;77.70;103313.56;5075575;28;20036;-59
2022/01/25 05:49:53;;;;;;;50.33;27.20;;;;;;;5.01;77.71;103300.00;5075375;28;20028;-59
2022/01/25 05:52:19;;;;;;;54.30;29.10;;;;;;;4.94;77.45;103309.16;5075279;28;20040;-58
2022/01/25 05:54:44;;;;;;;53.13;29.60;;;;;;;4.88;77.81;103308.72;5075239;28;20029;-59
2022/01/25 05:57:11;;;;;;;55.33;28.35;;;;;;;4.85;78.34;103311.09;5075019;28;20035;-59
2022/01/25 05:59:37;;;;;;;53.67;28.55;;;;;;;4.91;78.56;103303.69;5075034;28;20108;-59
2022/01/25 06:02:04;;;;;;;54.38;28.98;;;;;;;4.94;78.03;103309.16;5075019;28;20028;-59
2022/01/25 06:04:29;;;;;;;53.53;28.73;;;;;;;4.90;78.04;103306.19;5075181;28;20432;-59
2022/01/25 06:06:55;;;;;;;55.05;29.42;;;;;;;4.90;78.45;103304.47;5074909;28;20060;-59
2022/01/25 06:09:21;;;;;;;54.45;29.63;;;;;;;4.91;77.62;103302.78;5075003;28;20516;-58
2022/01/25 06:11:46;;;;;;;56.47;30.10;;;;;;;4.85;77.32;103308.47;5074672;28;20024;-59
2022/01/25 06:14:12;;;;;;;53.72;29.00;;;;;;;4.85;78.52;103292.75;5074845;28;20062;-60
2022/01/25 06:16:37;;;;;;;55.60;29.27;;;;;;;4.87;77.88;103313.81;5056829;28;20025;-59
2022/01/25 06:19:03;;;;;;;54.30;29.33;;;;;;;4.91;78.48;103306.28;5074749;28;20453;-60
2022/01/25 06:21:28;;;;;;;55.25;29.63;;;;;;;4.91;78.05;103306.28;5074656;28;20028;-59
2022/01/25 06:23:55;;;;;;;57.75;31.40;;;;;;;4.89;78.44;103302.66;5074557;28;20031;-59
2022/01/25 06:26:21;;;;;;;55.65;29.20;;;;;;;4.90;77.77;103301.88;5074500;28;20036;-58
2022/01/25 06:28:47;;;;;;;57.88;30.27;;;;;;;4.89;77.66;103304.38;5074672;28;20382;-58
2022/01/25 06:31:14;;;;;;;64.32;33.08;;;;;;;4.84;77.54;103301.44;5074336;28;20017;-59
2022/01/25 06:33:42;;;;;;;61.25;30.70;;;;;;;4.82;78.41;103303.00;5074438;28;20055;-59
2022/01/25 06:36:08;;;;;;;52.03;27.33;;;;;;;4.88;78.61;103303.47;5074103;28;20517;-59
2022/01/25 06:38:33;;;;;;;70.13;34.28;;;;;;;4.94;77.77;103301.28;5074268;28;20060;-58
2022/01/25 06:40:59;;;;;;;69.40;35.60;;;;;;;4.91;77.73;103303.69;5074243;28;20035;-59
2022/01/25 06:43:25;;;;;;;60.50;31.77;;;;;;;4.91;78.55;103319.41;5074034;28;20044;-59
2022/01/25 06:45:56;;;;;;;62.50;33.25;;;;;;;4.92;77.56;103309.81;5074018;28;20024;-59
2022/01/25 06:48:23;;;;;;;63.10;33.75;;;;;;;4.92;77.10;103308.09;5056106;28;20029;-59
2022/01/25 06:50:48;;;;;;;68.15;35.67;;;;;;;4.89;75.63;103312.25;5074054;28;20097;-59
2022/01/25 06:53:16;;;;;;;61.50;33.20;;;;;;;4.82;77.74;103309.97;5074139;28;20027;-59
2022/01/25 06:55:42;;;;;;;66.47;33.83;;;;;;;4.84;77.33;103311.91;5074032;28;20028;-59
2022/01/25 06:58:08;;;;;;;68.90;32.58;;;;;;;4.85;77.42;103302.34;5073837;28;20020;-59
2022/01/25 07:00:35;;;;;;;69.10;34.05;;;;;;;4.82;77.54;103309.97;5073670;28;20028;-59
2022/01/25 07:03:01;;;;;;;57.95;31.80;;;;;;;4.88;78.23;103320.88;5073778;28;20043;-59
2022/01/25 07:05:27;;;;;;;57.08;31.30;;;;;;;4.86;77.06;103325.09;5073259;28;20032;-59
2022/01/25 07:07:53;;;;;;;60.13;32.05;;;;;;;4.87;77.57;103319.97;5073806;28;20020;-58
2022/01/25 07:10:19;;;;;;;62.13;31.52;;;;;;;4.86;77.26;103330.34;5073660;28;20021;-58
2022/01/25 07:12:46;;;;;;;60.75;30.48;;;;;;;4.88;77.89;103329.66;5073625;28;20074;-59
2022/01/25 07:15:13;;;;;;;61.42;30.73;;;;;;;4.89;78.16;103321.00;5073497;28;20017;-59
2022/01/25 07:17:39;;;;;;;63.80;32.33;;;;;;;4.88;78.48;103323.50;5073725;28;20111;-59
2022/01/25 07:20:06;;;;;;;55.03;30.58;;;;;;;4.89;77.89;103327.97;5073564;28;20466;-59
2022/01/25 07:22:34;;;;;;;60.67;31.63;;;;;;;4.90;78.38;103325.44;5073364;28;20024;-59
2022/01/25 07:24:59;;;;;;;67.22;32.33;;;;;;;4.93;78.02;103325.69;5073422;28;20028;-58
2022/01/25 07:27:25;;;;;;;59.30;30.85;;;;;;;4.93;77.26;103325.69;5073241;28;20025;-58
2022/01/25 07:29:50;;;;;;;64.05;32.85;;;;;;;4.93;76.50;103328.28;5073495;28;20055;-59
2022/01/25 07:32:16;;;;;;;65.70;32.42;;;;;;;4.94;77.10;103332.72;5073352;28;20013;-59
2022/01/25 07:34:41;;;;;;;61.45;31.60;;;;;;;4.99;76.69;103322.59;5073360;28;20101;-59
2022/01/25 07:37:07;;;;;;;61.60;31.70;;;;;;;5.03;76.82;103325.53;5073303;28;20112;-59
2022/01/25 07:39:32;;;;;;;64.63;33.20;;;;;;;5.08;76.52;103327.59;5055290;28;20031;-59
2022/01/25 07:41:59;;;;;;;57.20;31.27;;;;;;;5.12;76.87;103321.78;5073050;28;20032;-58
2022/01/25 07:44:30;;;;;;;65.15;33.13;;;;;;;5.11;76.68;103330.44;5073093;28;20041;-59
2022/01/25 07:47:01;;;;;;;60.33;32.05;;;;;;;5.06;76.96;103330.09;5073135;28;20397;-59
2022/01/25 07:49:30;;;;;;;67.40;32.20;;;;;;;5.05;76.40;103337.84;5073242;28;20029;-59
2022/01/25 07:51:56;;;;;;;71.82;37.08;;;;;;;4.99;75.58;103330.44;5073210;28;20495;-59
2022/01/25 07:54:21;;;;;;;71.35;36.22;;;;;;;4.93;75.29;103330.00;5073109;28;20103;-59
2022/01/25 07:56:47;;;;;;;82.90;38.90;;;;;;;4.89;75.50;103331.47;5073063;28;20382;-58
2022/01/25 07:59:13;;;;;;;81.32;39.00;;;;;;;4.86;75.30;103332.97;5072875;28;20052;-59
2022/01/25 08:01:38;;;;;;;81.65;39.55;;;;;;;4.90;75.37;103338.53;5072882;28;20033;-59
2022/01/25 08:04:04;;;;;;;82.95;39.20;;;;;;;4.90;75.18;103338.53;5073373;28;20035;-58
2022/01/25 08:06:29;;;;;;;80.32;37.60;;;;;;;4.92;74.45;103329.06;5072739;28;20067;-59
2022/01/25 08:08:55;;;;;;;75.38;39.10;;;;;;;4.90;74.67;103343.78;5072951;28;20104;-59
2022/01/25 08:11:20;;;;;;;76.18;38.00;;;;;;;4.92;75.00;103331.69;5072837;28;20021;-59
2022/01/25 08:13:50;;;;;;;79.05;38.70;;;;;;;4.98;75.44;103333.88;5072972;28;20023;-59
2022/01/25 08:16:16;;;;;;;82.88;39.25;;;;;;;5.03;75.96;103330.78;5073187;28;20397;-59
2022/01/25 08:18:42;;;;;;;81.47;39.80;;;;;;;5.09;77.76;103332.03;5077053;28;20376;-59
2022/01/25 08:21:07;;;;;;;76.47;37.33;;;;;;;5.06;75.98;103345.81;5076815;28;20107;-60
2022/01/25 08:23:33;;;;;;;81.15;39.92;;;;;;;5.05;75.81;103340.44;5076957;28;20067;-58
2022/01/25 08:25:58;;;;;;;80.38;40.40;;;;;;;5.09;75.08;103342.50;5076766;28;20051;-58
2022/01/25 08:28:24;;;;;;;77.70;39.53;;;;;;;5.10;74.30;103340.00;5076852;28;20098;-59
2022/01/25 08:30:49;;;;;;;90.97;41.08;;;;;;;5.14;74.51;103344.69;5076963;28;20032;-59
2022/01/25 08:33:15;;;;;;;81.05;38.90;;;;;;;5.18;75.40;103343.16;5076963;28;20363;-60
2022/01/25 08:35:40;;;;;;;82.75;39.78;;;;;;;5.19;74.53;103337.16;5076788;28;20020;-60
2022/01/25 08:38:06;;;;;;;81.28;40.10;;;;;;;5.17;74.69;103336.09;5058665;28;20025;-61
2022/01/25 08:40:33;;;;;;;74.82;38.03;;;;;;;5.18;74.08;103345.78;5076657;28;20493;-59
2022/01/25 08:42:59;;;;;;;79.90;39.92;;;;;;;5.18;73.93;103341.50;5076181;28;20032;-58
2022/01/25 08:45:25;;;;;;;82.63;40.50;;;;;;;5.19;73.55;103345.91;5076392;28;20036;-59
2022/01/25 08:47:52;;;;;;;91.72;42.97;;;;;;;5.15;73.60;103356.06;5076408;28;20086;-59
2022/01/25 08:50:17;;;;;;;83.15;40.72;;;;;;;5.13;74.06;103344.53;5076417;28;20024;-59
2022/01/25 08:52:42;;;;;;;84.47;42.78;;;;;;;5.16;75.94;103350.03;5076272;28;20496;-59
2022/01/25 08:55:08;;;;;;;82.65;39.72;;;;;;;5.15;74.94;103346.50;5076243;28;20378;-58
2022/01/25 08:57:34;;;;;;;82.20;40.90;;;;;;;5.13;72.54;103355.94;5076199;28;20016;-58
2022/01/25 09:00:00;;;;;;;85.28;42.55;;;;;;;5.09;73.50;103353.88;5076292;28;20033;-58
2022/01/25 09:02:26;;;;;;;78.07;41.00;;;;;;;5.07;71.08;103347.63;5076119;28;20478;-59
2022/01/25 09:04:51;;;;;;;84.18;41.47;;;;;;;5.01;71.56;103355.03;5076102;28;20024;-60
2022/01/25 09:07:17;;;;;;;83.22;41.78;;;;;;;5.00;71.94;103359.38;5075967;28;20079;-58
2022/01/25 09:09:42;;;;;;;78.85;39.78;;;;;;;5.07;72.24;103359.84;5076090;28;20162;-58
2022/01/25 09:12:08;;;;;;;84.18;42.13;;;;;;;5.09;73.23;103356.50;5075799;28;20025;-59
2022/01/25 09:14:34;;;;;;;76.95;39.50;;;;;;;5.15;73.30;103356.97;5075952;28;20478;-58
2022/01/25 09:16:59;;;;;;;85.20;43.70;;;;;;;5.25;74.64;103356.84;5075769;28;20040;-59
2022/01/25 09:19:25;;;;;;;223.73;111.40;;;;;;;5.29;73.14;103350.09;5076156;28;20088;-58
2022/01/25 09:21:50;;;;;;;100.15;47.33;;;;;;;5.36;73.42;103357.63;5075799;28;20078;-58
2022/01/25 09:24:16;;;;;;;84.60;43.08;;;;;;;5.43;73.47;103357.25;5076004;28;20028;-58
2022/01/25 09:26:41;;;;;;;80.97;41.00;;;;;;;5.45;72.87;103352.13;5075494;28;20028;-58
2022/01/25 09:29:07;;;;;;;74.20;40.05;;;;;;;5.46;71.91;103354.84;5075182;28;20025;-59
2022/01/25 09:31:33;;;;;;;80.18;42.10;;;;;;;5.48;73.08;103360.19;5075665;28;20062;-58
2022/01/25 09:33:58;;;;;;;76.70;38.33;;;;;;;5.50;71.75;103367.38;5075621;28;20475;-59
2022/01/25 09:36:24;;;;;;;74.30;39.22;;;;;;;5.55;71.56;103367.72;5075731;28;20028;-60
2022/01/25 09:38:55;;;;;;;78.38;39.22;;;;;;;5.57;71.46;103365.19;5075481;28;20060;-61
2022/01/25 09:41:22;;;;;;;78.53;41.05;;;;;;;5.57;72.02;103367.81;5075373;28;20027;-59
2022/01/25 09:43:48;;;;;;;77.10;40.17;;;;;;;5.60;71.49;103366.31;5075246;28;20088;-59
2022/01/25 09:46:14;;;;;;;78.50;39.28;;;;;;;5.62;71.68;103366.47;5075621;28;20032;-60
2022/01/25 09:48:39;;;;;;;81.47;41.90;;;;;;;5.57;71.10;103368.75;5075270;28;20063;-59
2022/01/25 09:51:08;;;;;;;87.15;44.20;;;;;;;5.60;72.04;103370.66;5075276;28;20052;-59
2022/01/25 09:53:33;;;;;;;80.07;41.00;;;;;;;5.57;70.52;103379.25;5075466;28;20038;-58
2022/01/25 09:56:00;;;;;;;83.38;42.78;;;;;;;5.54;70.78;103376.38;5075465;28;20180;-58
2022/01/25 09:58:25;;;;;;;84.15;43.67;;;;;;;5.59;71.84;103379.34;5075142;28;20033;-58
2022/01/25 10:00:56;;;;;;;82.97;42.67;;;;;;;5.58;71.07;103385.41;5075363;28;20025;-59
2022/01/25 10:03:29;;;;;;;86.22;40.80;;;;;;;5.53;71.05;103382.44;5074931;28;20028;-59
2022/01/25 10:06:00;;;;;;;83.45;43.17;;;;;;;5.41;70.37;103374.59;5074914;28;20028;-59
2022/01/25 10:08:30;;;;;;;86.85;42.13;;;;;;;5.34;71.88;103385.44;5074981;28;20384;-59
2022/01/25 10:10:57;;;;;;;90.13;45.10;;;;;;;5.31;72.67;103377.38;5075146;28;20020;-58
2022/01/25 10:13:35;;;;;;;89.25;42.55;;;;;;;5.35;71.67;103383.72;5074845;28;20035;-58
2022/01/25 10:16:05;;;;;;;82.80;41.70;;;;;;;5.34;72.66;103374.94;5074795;28;20129;-59
2022/01/25 10:18:47;;;;;;;87.03;42.58;;;;;;;5.38;71.39;103377.00;5074970;28;20028;-58
2022/01/25 10:21:17;;;;;;;85.47;43.35;;;;;;;5.41;71.33;103377.22;5074689;28;20027;-59
2022/01/25 10:24:01;;;;;;;84.05;40.97;;;;;;;5.43;72.16;103380.84;5074708;28;20497;-59
2022/01/25 10:26:33;;;;;;;80.95;41.20;;;;;;;5.44;71.89;103374.81;5074397;28;20021;-59
2022/01/25 10:28:59;;;;;;;86.95;41.17;;;;;;;5.50;72.00;103382.22;5056497;28;20024;-58
2022/01/25 10:31:34;;;;;;;82.50;40.88;;;;;;;5.57;72.20;103380.94;5074356;28;20028;-59
2022/01/25 10:33:59;;;;;;;82.03;41.92;;;;;;;5.60;72.41;103382.06;5074576;28;20458;-58
2022/01/25 10:36:24;;;;;;;82.70;41.92;;;;;;;5.62;71.51;103385.72;5074354;28;20175;-58
2022/01/25 10:38:54;;;;;;;85.75;43.35;;;;;;;5.60;70.60;103384.69;5073915;28;20060;-59
2022/01/25 10:41:25;;;;;;;85.28;42.25;;;;;;;5.59;70.63;103377.63;5073798;28;20487;-59
2022/01/25 10:43:52;;;;;;;85.50;43.03;;;;;;;5.60;70.63;103373.28;5073859;28;20101;-59
2022/01/25 10:46:26;;;;;;;80.25;42.03;;;;;;;5.62;70.55;103377.84;5074200;28;20028;-58
2022/01/25 10:49:05;;;;;;;86.07;43.33;;;;;;;5.64;71.00;103372.72;5074159;28;20100;-58
2022/01/25 10:51:41;;;;;;;87.00;42.55;;;;;;;5.60;69.80;103374.19;5073951;28;20089;-59
2022/01/25 10:54:17;;;;;;;85.50;42.08;;;;;;;5.57;70.77;103368.75;5074049;28;20539;-59
2022/01/25 10:56:50;;;;;;;85.80;42.50;;;;;;;5.56;70.64;103373.88;5073933;28;20470;-58
2022/01/25 10:59:24;;;;;;;84.47;42.85;;;;;;;5.56;70.29;103374.78;5073809;28;20021;-59
2022/01/25 11:01:53;;;;;;;84.85;41.88;;;;;;;5.58;69.92;103372.28;5073918;28;20044;-58
2022/01/25 11:04:23;;;;;;;80.50;41.72;;;;;;;5.60;70.00;103374.19;5073823;28;20028;-58
2022/01/25 11:06:57;;;;;;;85.20;41.80;;;;;;;5.63;70.66;103374.44;5073957;28;20033;-58
2022/01/25 11:09:25;;;;;;;83.70;42.28;;;;;;;5.67;70.50;103368.59;5074103;28;20025;-59
2022/01/25 11:11:54;;;;;;;83.75;42.25;;;;;;;5.73;70.60;103383.84;5073712;28;20024;-58
2022/01/25 11:17:04;;;;;;;86.30;41.58;;;;;;;5.71;70.12;103380.22;5074119;28;20082;-59
2022/01/25 11:19:30;;;;;;;84.25;42.67;;;;;;;5.68;70.90;103385.25;5073503;28;20028;-59
2022/01/25 11:21:58;;;;;;;82.88;41.33;;;;;;;5.65;69.43;103388.56;5073566;28;20108;-59
2022/01/25 11:24:25;;;;;;;82.90;42.08;;;;;;;5.65;69.32;103383.34;5055554;28;20060;-59
2022/01/25 11:26:52;;;;;;;81.40;40.28;;;;;;;5.66;69.58;103382.53;5073305;28;20486;-59
2022/01/25 11:29:17;;;;;;;84.43;41.03;;;;;;;5.72;69.19;103382.03;5073196;28;20417;-58
2022/01/25 11:31:54;;;;;;;80.15;40.13;;;;;;;5.73;69.79;103382.13;5073306;28;20028;-60
2022/01/25 11:34:26;;;;;;;80.13;39.65;;;;;;;5.73;69.17;103376.88;5073376;28;20035;-59
2022/01/25 11:37:04;;;;;;;84.43;41.00;;;;;;;5.76;69.27;103378.84;5073535;28;20063;-59
2022/01/25 11:39:31;;;;;;;82.95;40.63;;;;;;;5.76;69.08;103381.44;5073327;28;20032;-58
2022/01/25 11:42:26;;;;;;;78.85;40.83;;;;;;;5.78;69.37;103375.53;5073006;28;20076;-61
2022/01/25 11:44:52;;;;;;;78.28;40.08;;;;;;;5.78;69.12;103378.16;5072983;28;20052;-59
2022/01/25 11:47:20;;;;;;;83.15;41.00;;;;;;;5.80;68.66;103377.34;5073285;28;20032;-60
2022/01/25 11:50:09;;;;;;;82.80;42.20;;;;;;;5.78;69.22;103377.22;5073280;28;20028;-59
2022/01/25 11:52:36;;;;;;;81.38;41.33;;;;;;;5.70;69.64;103375.78;5072942;28;20466;-59
2022/01/25 11:55:26;;;;;;;86.32;42.22;;;;;;;5.69;70.02;103373.94;5073077;28;20553;-59
2022/01/25 11:58:11;;;;;;;80.95;40.75;;;;;;;5.68;70.50;103372.13;5072949;28;20029;-59
2022/01/25 12:00:48;;;;;;;79.80;40.08;;;;;;;5.66;70.17;103379.91;5073058;28;20024;-59
2022/01/25 12:03:50;;;;;;;75.22;38.25;;;;;;;5.70;70.42;103376.69;5073237;28;20031;-59
2022/01/25 12:06:22;;;;;;;77.18;38.63;;;;;;;5.71;68.87;103368.00;5072864;28;20036;-59
2022/01/25 12:11:59;;;;;;;78.65;39.67;;;;;;;5.79;69.25;103360.69;5073008;28;20985;-59
2022/01/25 12:14:33;;;;;;;85.57;40.25;;;;;;;5.75;68.44;103359.56;5072782;28;20029;-59
2022/01/25 12:17:04;;;;;;;79.28;38.85;;;;;;;5.71;68.95;103357.53;5073044;28;20048;-59
2022/01/25 12:19:46;;;;;;;81.32;40.40;;;;;;;5.68;69.68;103356.38;5072886;28;20565;-59
2022/01/25 12:22:42;;;;;;;78.55;39.10;;;;;;;5.67;68.80;103365.97;5073115;28;20035;-59
2022/01/25 12:25:36;;;;;;;78.32;39.72;;;;;;;5.62;68.57;103361.22;5072746;28;20052;-59
2022/01/25 12:28:09;;;;;;;79.22;38.22;;;;;;;5.66;69.13;103358.91;5054520;28;20024;-61
2022/01/25 12:30:38;;;;;;;74.50;37.33;;;;;;;5.67;69.23;103355.47;5072685;28;20162;-60
2022/01/25 12:33:08;;;;;;;75.20;38.35;;;;;;;5.69;69.19;103347.72;5072726;28;20367;-59
2022/01/25 12:35:40;;;;;;;86.25;40.22;;;;;;;5.71;69.22;103349.66;5072629;28;20086;-60
2022/01/25 12:38:11;;;;;;;77.65;39.17;;;;;;;5.71;68.70;103351.38;5054690;28;20055;-60
2022/01/25 12:41:01;;;;;;;88.63;39.28;;;;;;;5.70;68.17;103341.69;5072424;28;20029;-61
2022/01/25 12:43:33;;;;;;;84.50;38.40;;;;;;;5.71;68.08;103340.88;5058291;28;20498;-60
2022/01/25 12:46:26;;;;;;;72.25;37.30;;;;;;;5.74;68.72;103344.63;5072518;28;20432;-60
2022/01/25 12:48:54;;;;;;;75.82;37.38;;;;;;;5.75;68.03;103335.03;4971863;28;20110;-59
2022/01/25 12:51:32;;;;;;;77.93;37.28;;;;;;;5.83;67.20;103338.22;4971705;28;20076;-60
2022/01/25 12:54:00;;;;;;;77.50;38.00;;;;;;;5.91;66.24;103330.06;4971845;28;20109;-60
2022/01/25 12:56:34;;;;;;;78.07;38.53;;;;;;;5.99;66.30;103334.13;4971955;28;20095;-60
2022/01/25 12:59:12;;;;;;;77.50;36.65;;;;;;;6.01;66.35;103327.31;4971850;28;20054;-60
2022/01/25 13:01:40;;;;;;;74.55;38.22;;;;;;;6.03;66.56;103324.78;4971679;28;20041;-60
2022/01/25 13:04:08;;;;;;;74.25;37.65;;;;;;;6.02;65.39;103321.25;4974519;28;20030;-60
2022/01/25 13:06:37;;;;;;;73.90;37.08;;;;;;;6.00;66.01;103317.63;4975351;28;20485;-59
2022/01/25 13:17:25;;;;;;;77.70;37.50;;;;;;;6.07;66.36;103303.19;4975285;28;20047;-60
2022/01/25 13:20:03;;;;;;;73.15;36.90;;;;;;;6.05;66.26;103301.28;4975250;28;20050;-60